ADDS TAF Board (Experimental) INFO Settings
IDs: Format: Expanded Condensed

KBWI - Baltimore-Washington, MD, US

Issued at 1738 UTC 30 Jun 2015
Updated at: 1942 UTC 30 Jun 2015
Time1907Z 30/20Z 30/21Z 30/22Z 30/23Z 01/00Z 01/01Z 01/02Z 01/03Z 01/04Z 01/05Z 01/06Z 01/07Z 01/08Z
Type OBS PRVL PRVL PRVL PRVL PRVL PRVL PRVL PRVL PRVL PRVL PRVL PRVL PRVL
VIS 8 >6 >6 >6 >6 >6 >6 >6 >6 >6 >6 >6 >6 >6
CIG 130 50 50 50 40 40 40 40 40 50 50 50 50 50
Cover BKN BKN BKN BKN BKN BKN BKN BKN BKN BKN BKN OVC OVC OVC
FltCat VFR VFR VFR VFR VFR VFR VFR VFR VFR VFR VFR VFR VFR VFR
WX TS VCTS VCTS VCTS -TSRA -TSRA -TSRA -TSRA -TSRA VCTS VCTS -- -- --
WDir 170 180 180 180 170 170 170 170 170 VRB VRB VRB VRB VRB
WSpd 8 11 11 11 7 7 7 7 7 3 3 3 3 3
WGst 14 19 19 19 -- -- -- -- -- -- -- -- -- --
R04/22
XWnd -5 -6 -6 -6 -5 -5 -5 -5 -5 VRB VRB VRB VRB VRB
XGst -10 -10 -10 -10 -- -- -- -- -- -- -- -- -- --
HWnd -6 -9 -9 -9 -5 -5 -5 -5 -5 VRB VRB VRB VRB VRB
HGst -10 -16 -16 -16 -- -- -- -- -- -- -- -- -- --
R10/28
XWnd -8 -11 -11 -11 -7 -7 -7 -7 -7 VRB VRB VRB VRB VRB
XGst -14 -19 -19 -19 -- -- -- -- -- -- -- -- -- --
HWnd 2 1 1 1 2 2 2 2 2 VRB VRB VRB VRB VRB
HGst 3 1 1 1 -- -- -- -- -- -- -- -- -- --
R15/33
XWnd -4 -6 -6 -6 -3 -3 -3 -3 -3 VRB VRB VRB VRB VRB
XGst -6 -11 -11 -11 -- -- -- -- -- -- -- -- -- --
HWnd 7 9 9 9 6 6 6 6 6 VRB VRB VRB VRB VRB
HGst 13 15 15 15 -- -- -- -- -- -- -- -- -- --

NOTE: TEMPO conditions in [brackets]. Keep in mind TEMPO conditions might be better (lower impact) than prevailing conditions.

Raw TAF
KBWI 301738Z 3018/0124 18011G19KT P6SM VCTS BKN050CB
  FM302300 17007KT P6SM -TSRA BKN040CB
  FM010400 VRB03KT P6SM VCTS BKN050CB
  FM010600 VRB03KT P6SM OVC050
  FM011400 26005KT P6SM SCT050


Raw METAR
KBWI 301907Z 17008G14KT 8SM TS SCT041CB SCT070 BKN130 BKN250 28/19 A2982 RMK AO2 TSB06 FRQ LTGCG E-SE TS E-SE MOV NE
KBWI 301854Z 19007KT 10SM SCT037CB SCT070 SCT130 BKN200 29/20 A2983 RMK AO2 SLP098 CB S MOV NE TCU E-SE T02940200
KBWI 301754Z 20006KT 10SM SCT034CB SCT070 BKN130 28/21 A2985 RMK AO2 RAB10E15 SLP105 CB VC NE AND DSNT E MOV NE P0000 60000 T02830206 10289 20239 58016
KBWI 301654Z 17009KT 10SM FEW024 SCT060TCU BKN090 BKN140 28/21 A2987 RMK AO2 SLP114 TCU OHD AND E-S T02830211

METAR Board
Radar Display
Forecast Discussion

TAF Board Legend

Potential Impact
Threat None Slight Moderate High
Visibility (sm) ≥5.1 5.1>X≥3 3>X≥1 <1
Ceiling (100 ft) ≥30.1 30.1>X≥10 10>X≥5 <5
Wind Speed (kt) <10 10≤X<20 20≤X<30 ≥30
Wind Gust (kt) <15 15≤X<25 25≤X<35 ≥35
Weather No Wx Reported VCTS,-TS,-FZRA,SN TS,FZRA +TS,+FZRA,+SN